McComb, MS

3:33 PM CST on December 27, 2014 (GMT -0600)
HADS BOGUE CHITTO NEAR TYLERTOWN 9NW MS US USGS | Change Station
CLOSE
Current Station
Personal Weather Station
Location: McComb, MS
Elevation: 227 ft
Nearby Weather Stations
Active Advisory: Areal Flood Watch

Elev 227 ft 31.18 °N, 90.28 °W | Updated 48 minutes ago

Overcast
Overcast
--
Feels Like --
N
0.0
Wind Variable Wind from North

Today
High -- | Low -- °F
--% Chance of Precip.
Yesterday
High -- | Low -- °F
Precip. -- in
6:58 AM 5:06 PM
Waxing Crescent, 40% visible
Pressure 30.05 in
Visibility 1.8 miles
Clouds Overcast 500 ft
Dew Point Not available.
Humidity Not available.
Rainfall -999.00 in
Snow Depth Not available.
UV 0 out of 12
Pollen .60 out of 12
Air Quality Not available.
Flu Activity Not available.
SPECI KMCB 272129Z AUTO 13009KT 1 3/4SM BR OVC005 18/17 A3005 RMK AO2 RAB03E14 P0001 T01830172

More Conditions Fewer Conditions

Pressure 30.05 in
Visibility 1.8 miles
Clouds Overcast 500 ft
Dew Point Not available.
Humidity Not available.
Rainfall -999.00 in
Snow Depth Not available.
UV 0 out of 12
Pollen .60 out of 12
Air Quality Not available.
Flu Activity Not available.
SPECI KMCB 272129Z AUTO 13009KT 1 3/4SM BR OVC005 18/17 A3005 RMK AO2 RAB03E14 P0001 T01830172

More Conditions Fewer Conditions

10-Day Weather Forecast

Almanac

Astronomy

Dec. 27, 2014 Rise Set
Actual Time
Civil Twilight
Nautical Twilight
Astronomical Twilight
Moon
Length of Visible Light
Length of Day
Tomorrow will be .
, % of the Moon is Illuminated

Today's Extremes

State Highs State Lows

Community

WunderPhotos

Upload Photos

1,781,073 photos uploaded!

WunderBlogs® & News

Nearby

Air Quality

  Air Quality AQ Index Pollutant
Not available.

Snow Depth

Station Depth Elevation

Earthquake Activity

City Distance Mag. Time & Date
Minimum magnitude displayed is 2.5.

Coastal Water Temperatures

Place Temperature

Nearby Weather Stations